createdAt,value
2023-05-19T00:00:48.201Z,100789.72
2023-05-19T00:01:53.463Z,100788.03
2023-05-19T00:02:57.427Z,100786.75
2023-05-19T00:04:03.748Z,100792.16
2023-05-19T00:05:07.816Z,100792.53
2023-05-19T00:06:11.147Z,100794.44
2023-05-19T00:07:14.139Z,100798.75
2023-05-19T00:08:17.745Z,100801.19
2023-05-19T00:09:21.133Z,100795.31
2023-05-19T00:10:24.559Z,100794.47
2023-05-19T00:11:28.501Z,100797.75
2023-05-19T00:12:31.801Z,100798.16
2023-05-19T00:13:35.141Z,100792.75
2023-05-19T00:14:38.300Z,100802.72
2023-05-19T00:15:42.195Z,100798.34
2023-05-19T00:16:46.215Z,100796.84
2023-05-19T00:17:49.732Z,100792.28
2023-05-19T00:18:54.128Z,100789.56
2023-05-19T00:19:57.514Z,100784.38
2023-05-19T00:21:00.666Z,100785.59
2023-05-19T00:22:04.239Z,100786.41
2023-05-19T00:23:07.632Z,100783.91
2023-05-19T00:24:11.352Z,100780.56
2023-05-19T00:25:15.088Z,100787.00
2023-05-19T00:26:18.872Z,100775.53
2023-05-19T00:27:32.030Z,100785.31
2023-05-19T00:28:35.761Z,100784.13
2023-05-19T00:29:39.642Z,100779.91
2023-05-19T00:30:43.356Z,100776.53
2023-05-19T00:31:46.783Z,100775.06
2023-05-19T00:32:50.700Z,100778.63
2023-05-19T00:33:54.408Z,100782.34
2023-05-19T00:34:57.187Z,100779.66
2023-05-19T00:36:04.396Z,100775.91
2023-05-19T00:37:07.977Z,100776.53
2023-05-19T00:38:11.592Z,100767.03
2023-05-19T00:39:15.319Z,100774.31
2023-05-19T00:40:18.669Z,100776.53
2023-05-19T00:41:22.130Z,100776.53
2023-05-19T00:42:25.973Z,100779.66
2023-05-19T00:43:30.991Z,100774.41
2023-05-19T00:44:34.927Z,100776.28
2023-05-19T00:45:38.612Z,100774.59
2023-05-19T00:46:42.501Z,100785.81
2023-05-19T00:47:46.266Z,100778.72
2023-05-19T00:48:49.997Z,100768.94
2023-05-19T00:49:53.415Z,100770.16
2023-05-19T00:51:02.594Z,100774.56
2023-05-19T00:52:07.238Z,100772.88
2023-05-19T00:53:10.901Z,100774.75
2023-05-19T00:54:14.475Z,100773.44
2023-05-19T00:55:17.897Z,100765.69
2023-05-19T00:56:22.636Z,100775.50
2023-05-19T00:57:27.472Z,100770.94
2023-05-19T00:58:33.441Z,100764.03
2023-05-19T00:59:37.703Z,100764.03
2023-05-19T01:00:41.230Z,100761.31
2023-05-19T01:01:49.911Z,100768.13
2023-05-19T01:02:53.596Z,100764.63
2023-05-19T01:03:59.731Z,100762.88
2023-05-19T01:05:03.436Z,100754.47
2023-05-19T01:06:07.084Z,100754.69
2023-05-19T01:07:10.934Z,100759.44
2023-05-19T01:08:14.317Z,100763.16
2023-05-19T01:09:18.107Z,100764.00
2023-05-19T01:10:21.987Z,100762.13
2023-05-19T01:11:25.741Z,100764.66
2023-05-19T01:12:29.346Z,100759.06
2023-05-19T01:13:33.142Z,100763.44
2023-05-19T01:14:36.858Z,100756.63
2023-05-19T01:16:08.668Z,100756.25
2023-05-19T01:17:41.853Z,100754.22
2023-05-19T01:19:02.260Z,100752.16
2023-05-19T01:20:07.581Z,100745.53
2023-05-19T01:21:19.624Z,100745.97
2023-05-19T01:22:29.517Z,100745.59
2023-05-19T01:23:57.975Z,100746.25
2023-05-19T01:25:16.334Z,100741.50
2023-05-19T01:26:22.477Z,100738.13
2023-05-19T01:27:36.513Z,100741.88
2023-05-19T01:28:49.184Z,100735.34
2023-05-19T01:30:11.586Z,100733.41
2023-05-19T01:31:15.696Z,100737.53
2023-05-19T01:32:20.078Z,100727.72
2023-05-19T01:33:24.782Z,100737.06
2023-05-19T01:34:29.036Z,100736.59
2023-05-19T01:35:33.490Z,100730.38
2023-05-19T01:36:37.337Z,100727.69
2023-05-19T01:37:40.915Z,100734.94
2023-05-19T01:38:46.788Z,100732.88
2023-05-19T01:39:50.465Z,100733.09
2023-05-19T01:40:54.176Z,100728.50
2023-05-19T01:41:57.398Z,100731.56
2023-05-19T01:43:01.691Z,100725.69
2023-05-19T01:44:04.966Z,100726.06
2023-05-19T01:45:12.025Z,100728.75
2023-05-19T01:46:16.102Z,100723.34
2023-05-19T01:47:20.003Z,100721.03
2023-05-19T01:48:23.683Z,100723.38
2023-05-19T01:49:27.126Z,100717.22
2023-05-19T01:50:31.138Z,100709.88
2023-05-19T01:51:34.801Z,100709.25
2023-05-19T01:52:38.415Z,100706.72
2023-05-19T01:53:41.542Z,100699.63
2023-05-19T01:54:44.540Z,100711.09
2023-05-19T01:55:50.158Z,100712.56
2023-05-19T01:57:13.749Z,100711.38
2023-05-19T01:58:39.522Z,100712.41
2023-05-19T01:59:46.223Z,100714.72
2023-05-19T02:00:58.345Z,100713.06
2023-05-19T02:02:01.761Z,100707.66
2023-05-19T02:03:32.475Z,100705.97
2023-05-19T02:04:48.510Z,100708.00
2023-05-19T02:06:10.332Z,100707.38
2023-05-19T02:07:52.217Z,100710.72
2023-05-19T02:09:28.539Z,100706.53
2023-05-19T02:10:32.081Z,100706.53
2023-05-19T02:12:20.694Z,100704.28
2023-05-19T02:13:24.814Z,100708.69
2023-05-19T02:14:35.240Z,100702.63
2023-05-19T02:15:44.641Z,100696.75
2023-05-19T02:16:48.766Z,100703.00
2023-05-19T02:17:55.169Z,100701.50
2023-05-19T02:19:00.453Z,100698.34
2023-05-19T02:20:05.566Z,100698.34
2023-05-19T02:21:14.056Z,100691.81
2023-05-19T02:22:17.859Z,100702.63
2023-05-19T02:23:21.482Z,100699.97
2023-05-19T02:24:24.879Z,100698.69
2023-05-19T02:25:28.263Z,100698.19
2023-05-19T02:26:31.486Z,100697.38
2023-05-19T02:27:38.689Z,100702.78
2023-05-19T02:28:43.204Z,100701.09
2023-05-19T02:29:46.914Z,100703.59
2023-05-19T02:30:50.459Z,100697.38
2023-05-19T02:31:53.582Z,100701.09
2023-05-19T02:32:56.677Z,100694.00
2023-05-19T02:34:00.639Z,100697.72
2023-05-19T02:35:04.797Z,100690.19
2023-05-19T02:36:09.544Z,100690.38
2023-05-19T02:37:15.089Z,100690.56
2023-05-19T02:38:18.605Z,100692.16
2023-05-19T02:39:21.973Z,100692.56
2023-05-19T02:40:25.314Z,100690.19
2023-05-19T02:41:29.315Z,100695.13
2023-05-19T02:42:32.810Z,100698.84
2023-05-19T02:43:36.813Z,100688.22
2023-05-19T02:44:40.508Z,100687.56
2023-05-19T02:45:44.331Z,100699.72
2023-05-19T02:46:47.808Z,100695.78
2023-05-19T02:47:51.258Z,100695.13
2023-05-19T02:48:54.967Z,100690.09
2023-05-19T02:49:58.991Z,100693.81
2023-05-19T02:51:02.616Z,100699.53
2023-05-19T02:52:06.530Z,100695.50
2023-05-19T02:53:10.554Z,100701.53
2023-05-19T02:54:13.676Z,100699.66
2023-05-19T02:55:18.591Z,100702.19
2023-05-19T02:56:22.579Z,100703.88
2023-05-19T02:57:27.237Z,100706.56
2023-05-19T02:58:31.319Z,100694.28
2023-05-19T02:59:34.917Z,100699.84
2023-05-19T03:00:38.325Z,100703.75
2023-05-19T03:01:42.000Z,100702.91
2023-05-19T03:02:46.193Z,100697.53
2023-05-19T03:03:50.013Z,100698.53
2023-05-19T03:04:53.757Z,100704.75
2023-05-19T03:05:57.215Z,100698.00
2023-05-19T03:07:00.697Z,100702.75
2023-05-19T03:08:04.005Z,100697.25
2023-05-19T03:09:07.632Z,100694.63
2023-05-19T03:10:11.584Z,100699.03
2023-05-19T03:11:15.967Z,100694.72
2023-05-19T03:12:19.371Z,100691.75
2023-05-19T03:13:23.085Z,100698.59
2023-05-19T03:14:26.419Z,100694.91
2023-05-19T03:15:29.841Z,100702.16
2023-05-19T03:16:33.337Z,100693.81
2023-05-19T03:17:37.073Z,100703.06
2023-05-19T03:18:40.440Z,100699.06
2023-05-19T03:19:43.885Z,100694.50
2023-05-19T03:20:47.006Z,100694.69
2023-05-19T03:21:50.661Z,100688.97
2023-05-19T03:22:54.322Z,100692.50
2023-05-19T03:23:57.886Z,100693.19
2023-05-19T03:25:01.129Z,100699.41
2023-05-19T03:26:05.193Z,100695.03
2023-05-19T03:27:08.324Z,100700.25
2023-05-19T03:28:11.915Z,100690.66
2023-05-19T03:29:15.749Z,100700.44
2023-05-19T03:30:19.411Z,100696.72
2023-05-19T03:31:41.220Z,100696.91
2023-05-19T03:32:44.935Z,100704.78
2023-05-19T03:33:48.532Z,100700.41
2023-05-19T03:34:52.194Z,100699.69
2023-05-19T03:35:55.938Z,100703.06
2023-05-19T03:36:59.414Z,100701.22
2023-05-19T03:38:02.830Z,100698.34
2023-05-19T03:39:07.796Z,100704.38
2023-05-19T03:40:12.699Z,100702.38
2023-05-19T03:41:19.276Z,100702.38
2023-05-19T03:42:23.186Z,100703.72
2023-05-19T03:43:27.376Z,100700.69
2023-05-19T03:44:38.359Z,100702.72
2023-05-19T03:45:41.913Z,100701.69
2023-05-19T03:47:07.820Z,100702.41
2023-05-19T03:48:34.210Z,100700.88
2023-05-19T03:50:05.594Z,100699.38
2023-05-19T03:51:30.903Z,100696.69
2023-05-19T03:52:54.571Z,100699.41
2023-05-19T03:54:05.404Z,100707.63
2023-05-19T03:55:09.578Z,100701.09
2023-05-19T03:56:14.183Z,100702.09
2023-05-19T03:57:17.876Z,100699.72
2023-05-19T03:58:21.479Z,100711.69
2023-05-19T03:59:25.272Z,100711.84
2023-05-19T04:00:28.879Z,100705.13
2023-05-19T04:01:32.316Z,100708.84
2023-05-19T04:02:35.532Z,100711.19
2023-05-19T04:03:39.175Z,100712.00
2023-05-19T04:04:43.014Z,100703.78
2023-05-19T04:05:47.322Z,100711.16
2023-05-19T04:06:51.043Z,100715.88
2023-05-19T04:07:54.601Z,100707.81
2023-05-19T04:08:57.859Z,100708.47
2023-05-19T04:10:01.508Z,100711.84
2023-05-19T04:11:05.075Z,100711.16
2023-05-19T04:12:09.181Z,100720.25
2023-05-19T04:13:12.725Z,100715.03
2023-05-19T04:14:16.598Z,100718.56
2023-05-19T04:15:19.750Z,100712.81
2023-05-19T04:16:23.403Z,100718.88
2023-05-19T04:17:27.384Z,100715.03
2023-05-19T04:18:31.254Z,100713.81
2023-05-19T04:19:34.922Z,100706.13
2023-05-19T04:20:38.429Z,100708.44
2023-05-19T04:21:41.683Z,100712.50
2023-05-19T04:22:45.151Z,100712.16
2023-05-19T04:23:48.830Z,100710.81
2023-05-19T04:24:53.576Z,100711.81
2023-05-19T04:25:57.587Z,100714.81
2023-05-19T04:27:05.705Z,100714.19
2023-05-19T04:28:09.339Z,100707.59
2023-05-19T04:29:14.486Z,100709.44
2023-05-19T04:30:23.130Z,100710.47
2023-05-19T04:31:28.396Z,100718.56
2023-05-19T04:32:32.443Z,100716.66
2023-05-19T04:33:37.040Z,100717.50
2023-05-19T04:34:41.253Z,100719.88
2023-05-19T04:35:45.389Z,100719.88
2023-05-19T04:36:51.645Z,100716.50
2023-05-19T04:37:58.129Z,100723.19
2023-05-19T04:39:10.943Z,100720.81
2023-05-19T04:40:18.259Z,100725.53
2023-05-19T04:41:22.404Z,100731.53
2023-05-19T04:42:26.600Z,100727.31
2023-05-19T04:43:32.047Z,100728.94
2023-05-19T04:44:37.072Z,100726.75
2023-05-19T04:45:43.378Z,100726.53
2023-05-19T04:46:48.633Z,100719.28
2023-05-19T04:47:53.145Z,100729.00
2023-05-19T04:48:57.668Z,100723.75
2023-05-19T04:50:01.239Z,100734.97
2023-05-19T04:51:05.920Z,100743.03
2023-05-19T04:52:13.791Z,100741.50
2023-05-19T04:53:17.930Z,100740.28
2023-05-19T04:54:21.145Z,100751.91
2023-05-19T04:55:25.114Z,100741.97
2023-05-19T04:56:29.460Z,100745.47
2023-05-19T04:57:33.655Z,100740.88
2023-05-19T04:58:40.119Z,100741.72
2023-05-19T04:59:45.241Z,100743.53
2023-05-19T05:00:48.728Z,100745.56
2023-05-19T05:01:52.925Z,100740.88
2023-05-19T05:02:58.197Z,100736.31
2023-05-19T05:04:03.941Z,100733.84
2023-05-19T05:05:08.456Z,100732.16
2023-05-19T05:06:12.685Z,100735.00
2023-05-19T05:07:16.520Z,100735.19
2023-05-19T05:08:23.950Z,100743.94
2023-05-19T05:09:27.549Z,100731.47
2023-05-19T05:10:33.233Z,100738.09
2023-05-19T05:11:37.615Z,100739.94
2023-05-19T05:12:41.604Z,100736.41
2023-05-19T05:13:45.297Z,100743.28
2023-05-19T05:14:50.173Z,100735.69
2023-05-19T05:15:54.736Z,100740.22
2023-05-19T05:16:59.137Z,100742.25
2023-05-19T05:18:02.576Z,100746.63
2023-05-19T05:19:06.597Z,100746.94
2023-05-19T05:20:11.934Z,100746.59
2023-05-19T05:21:15.653Z,100746.59
2023-05-19T05:22:19.519Z,100742.84
2023-05-19T05:23:23.047Z,100750.59
2023-05-19T05:24:27.492Z,100754.97
2023-05-19T05:25:35.297Z,100751.44
2023-05-19T05:26:39.161Z,100752.28
2023-05-19T05:27:42.475Z,100751.53
2023-05-19T05:28:46.148Z,100748.53
2023-05-19T05:29:50.608Z,100752.72
2023-05-19T05:30:58.764Z,100748.81
2023-05-19T05:32:02.533Z,100758.44
2023-05-19T05:33:06.883Z,100748.94
2023-05-19T05:34:14.231Z,100757.50
2023-05-19T05:35:19.494Z,100752.78
2023-05-19T05:36:23.826Z,100753.91
2023-05-19T05:37:27.449Z,100759.09
2023-05-19T05:38:31.468Z,100756.72
2023-05-19T05:39:34.906Z,100756.34
2023-05-19T05:40:38.308Z,100752.25
2023-05-19T05:41:42.483Z,100754.63
2023-05-19T05:42:47.880Z,100758.16
2023-05-19T05:43:51.860Z,100761.97
2023-05-19T05:44:55.236Z,100761.59
2023-05-19T05:45:58.680Z,100766.63
2023-05-19T05:47:04.001Z,100764.25
2023-05-19T05:48:08.772Z,100760.16
2023-05-19T05:49:13.886Z,100761.44
2023-05-19T05:50:20.061Z,100767.78
2023-05-19T05:51:24.294Z,100772.06
2023-05-19T05:52:30.862Z,100765.38
2023-05-19T05:53:38.358Z,100776.56
2023-05-19T05:54:42.091Z,100774.44
2023-05-19T05:55:47.108Z,100760.91
2023-05-19T05:56:52.292Z,100774.00
2023-05-19T05:57:57.806Z,100771.97
2023-05-19T05:59:03.795Z,100776.25
2023-05-19T06:00:16.276Z,100779.28
2023-05-19T06:01:19.467Z,100771.75
2023-05-19T06:02:23.282Z,100780.47
2023-05-19T06:03:27.658Z,100772.53
2023-05-19T06:04:33.915Z,100781.84
2023-05-19T06:05:38.085Z,100779.41
2023-05-19T06:06:41.644Z,100781.09
2023-05-19T06:07:45.441Z,100788.09
2023-05-19T06:08:52.200Z,100780.22
2023-05-19T06:09:57.677Z,100791.81
2023-05-19T06:11:01.809Z,100787.34
2023-05-19T06:12:07.762Z,100792.72
2023-05-19T06:13:20.007Z,100786.53
2023-05-19T06:14:23.817Z,100794.44
2023-05-19T06:15:51.895Z,100788.63
2023-05-19T06:17:09.532Z,100785.91
2023-05-19T06:18:13.391Z,100783.84
2023-05-19T06:19:17.102Z,100789.34
2023-05-19T06:20:21.453Z,100788.97
2023-05-19T06:21:25.146Z,100792.09
2023-05-19T06:22:29.114Z,100788.22
2023-05-19T06:23:32.913Z,100788.41
2023-05-19T06:24:38.743Z,100788.50
2023-05-19T06:25:45.132Z,100792.13
2023-05-19T06:26:49.219Z,100795.50
2023-05-19T06:27:53.480Z,100784.75
2023-05-19T06:28:58.411Z,100790.34
2023-05-19T06:30:01.897Z,100790.75
2023-05-19T06:31:08.790Z,100789.38
2023-05-19T06:32:23.172Z,100790.53
2023-05-19T06:33:29.093Z,100797.16
2023-05-19T06:34:33.713Z,100794.28
2023-05-19T06:35:37.102Z,100788.66
2023-05-19T06:36:42.311Z,100793.59
2023-05-19T06:37:46.813Z,100791.16
2023-05-19T06:38:50.521Z,100800.69
2023-05-19T06:39:54.219Z,100798.59
2023-05-19T06:40:58.013Z,100807.44
2023-05-19T06:42:01.934Z,100804.63
2023-05-19T06:43:32.413Z,100815.00
2023-05-19T06:44:39.347Z,100801.25
2023-05-19T06:45:48.246Z,100813.13
2023-05-19T06:46:51.387Z,100810.41
2023-05-19T06:47:56.075Z,100811.94
2023-05-19T06:48:59.641Z,100810.09
2023-05-19T06:50:05.455Z,100817.03
2023-05-19T06:51:11.779Z,100814.03
2023-05-19T06:52:16.425Z,100822.19
2023-05-19T06:53:20.524Z,100811.28
2023-05-19T06:54:24.224Z,100813.34
2023-05-19T06:55:27.667Z,100819.69
2023-05-19T06:56:30.847Z,100821.22
2023-05-19T06:57:34.419Z,100816.09
2023-05-19T06:58:39.960Z,100816.78
2023-05-19T06:59:44.062Z,100814.09
2023-05-19T07:00:47.728Z,100818.69
2023-05-19T07:01:53.069Z,100822.53
2023-05-19T07:02:56.794Z,100818.63
2023-05-19T07:04:01.121Z,100815.75
2023-05-19T07:05:06.272Z,100818.34
2023-05-19T07:06:10.617Z,100813.47
2023-05-19T07:07:14.791Z,100822.19
2023-05-19T07:08:19.160Z,100831.88
2023-05-19T07:09:22.977Z,100828.88
2023-05-19T07:10:29.995Z,100826.88
2023-05-19T07:11:33.311Z,100825.94
2023-05-19T07:12:36.461Z,100817.06
2023-05-19T07:13:41.184Z,100812.69
2023-05-19T07:14:44.794Z,100826.34
2023-05-19T07:15:53.041Z,100818.06
2023-05-19T07:16:56.353Z,100816.38
2023-05-19T07:18:00.034Z,100816.16
2023-05-19T07:19:03.761Z,100816.28
2023-05-19T07:20:07.687Z,100817.19
2023-05-19T07:21:11.547Z,100817.28
2023-05-19T07:22:15.533Z,100820.72
2023-05-19T07:23:18.993Z,100816.69
2023-05-19T07:24:23.843Z,100817.13
2023-05-19T07:25:29.302Z,100822.41
2023-05-19T07:26:32.671Z,100825.38
2023-05-19T07:27:35.731Z,100823.66
2023-05-19T07:28:41.449Z,100828.00
2023-05-19T07:29:45.087Z,100824.66
2023-05-19T07:30:48.120Z,100837.63
2023-05-19T07:31:55.083Z,100833.09
2023-05-19T07:32:58.021Z,100828.94
2023-05-19T07:34:01.684Z,100817.72
2023-05-19T07:35:06.562Z,100832.88
2023-05-19T07:36:10.367Z,100830.88
2023-05-19T07:37:14.263Z,100819.44
2023-05-19T07:38:17.629Z,100825.03
2023-05-19T07:39:22.001Z,100830.28
2023-05-19T07:40:25.681Z,100824.63
2023-05-19T07:41:28.914Z,100829.78
2023-05-19T07:42:32.601Z,100827.00
2023-05-19T07:43:35.926Z,100825.78
2023-05-19T07:44:39.594Z,100825.28
2023-05-19T07:45:43.388Z,100828.19
2023-05-19T07:46:47.165Z,100833.59
2023-05-19T07:47:50.941Z,100824.31
2023-05-19T07:48:54.645Z,100835.09
2023-05-19T07:49:57.909Z,100829.56
2023-05-19T07:51:01.306Z,100842.59
2023-05-19T07:52:04.491Z,100848.34
2023-05-19T07:53:08.437Z,100845.72
2023-05-19T07:54:11.713Z,100849.88
2023-05-19T07:55:15.909Z,100836.81
2023-05-19T07:56:19.575Z,100834.84
2023-05-19T07:57:22.981Z,100839.13
2023-05-19T07:58:26.567Z,100837.28
2023-05-19T07:59:29.824Z,100837.06
2023-05-19T08:00:33.764Z,100837.25
2023-05-19T08:01:37.187Z,100836.19
2023-05-19T08:02:41.349Z,100840.81
2023-05-19T08:03:45.010Z,100842.97
2023-05-19T08:04:49.321Z,100825.19
2023-05-19T08:05:52.942Z,100834.88
2023-05-19T08:06:56.458Z,100829.56
2023-05-19T08:07:59.788Z,100835.22
2023-05-19T08:09:02.964Z,100830.53
2023-05-19T08:10:07.123Z,100829.22
2023-05-19T08:11:10.303Z,100840.16
2023-05-19T08:12:13.959Z,100840.66
2023-05-19T08:13:17.625Z,100833.16
2023-05-19T08:14:23.352Z,100835.91
2023-05-19T08:15:26.857Z,100822.34
2023-05-19T08:16:30.220Z,100835.84
2023-05-19T08:17:33.538Z,100837.75
2023-05-19T08:18:37.081Z,100836.97
2023-05-19T08:19:40.458Z,100836.50
2023-05-19T08:20:43.968Z,100836.56
2023-05-19T08:21:48.824Z,100838.84
2023-05-19T08:22:52.467Z,100835.34
2023-05-19T08:23:55.744Z,100848.31
2023-05-19T08:24:58.685Z,100838.91
2023-05-19T08:26:02.879Z,100837.56
2023-05-19T08:27:07.887Z,100836.59
2023-05-19T08:28:12.097Z,100837.44
2023-05-19T08:29:15.534Z,100846.81
2023-05-19T08:30:18.936Z,100839.22
2023-05-19T08:31:23.062Z,100838.81
2023-05-19T08:32:26.512Z,100833.53
2023-05-19T08:33:29.997Z,100840.06
2023-05-19T08:34:33.759Z,100840.84
2023-05-19T08:35:37.356Z,100842.94
2023-05-19T08:36:41.450Z,100829.59
2023-05-19T08:37:45.283Z,100838.56
2023-05-19T08:38:49.053Z,100829.91
2023-05-19T08:39:52.165Z,100835.38
2023-05-19T08:40:55.301Z,100837.81
2023-05-19T08:41:58.266Z,100834.41
2023-05-19T08:43:01.716Z,100837.28
2023-05-19T08:44:06.076Z,100842.88
2023-05-19T08:45:10.439Z,100837.03
2023-05-19T08:46:15.481Z,100836.03
2023-05-19T08:47:19.834Z,100838.94
2023-05-19T08:48:22.993Z,100849.59
2023-05-19T08:49:31.585Z,100848.91
2023-05-19T08:50:37.127Z,100849.38
2023-05-19T08:51:46.689Z,100857.41
2023-05-19T08:53:05.327Z,100849.31
2023-05-19T08:54:18.564Z,100849.94
2023-05-19T08:55:29.001Z,100853.56
2023-05-19T08:56:32.580Z,100848.84
2023-05-19T08:57:37.302Z,100846.59
2023-05-19T08:58:44.824Z,100839.13
2023-05-19T08:59:49.842Z,100842.09
2023-05-19T09:00:54.281Z,100836.25
2023-05-19T09:01:57.925Z,100834.47
2023-05-19T09:03:17.378Z,100841.97
2023-05-19T09:04:21.653Z,100840.84
2023-05-19T09:05:24.811Z,100835.25
2023-05-19T09:06:28.261Z,100840.38
2023-05-19T09:07:35.459Z,100835.06
2023-05-19T09:08:38.888Z,100837.22
2023-05-19T09:09:44.258Z,100846.31
2023-05-19T09:10:47.346Z,100838.56
2023-05-19T09:11:50.964Z,100844.88
2023-05-19T09:12:54.478Z,100838.78
2023-05-19T09:13:58.194Z,100841.47
2023-05-19T09:15:02.927Z,100846.34
2023-05-19T09:16:07.671Z,100835.94
2023-05-19T09:17:11.511Z,100839.06
2023-05-19T09:18:16.165Z,100839.56
2023-05-19T09:19:21.684Z,100839.94
2023-05-19T09:20:25.156Z,100839.69
2023-05-19T09:21:31.663Z,100842.72
2023-05-19T09:22:37.120Z,100842.28
2023-05-19T09:23:40.759Z,100841.28
2023-05-19T09:24:44.589Z,100839.03
2023-05-19T09:25:49.537Z,100844.81
2023-05-19T09:26:52.775Z,100835.47
2023-05-19T09:27:56.210Z,100832.91
2023-05-19T09:28:59.463Z,100830.25
2023-05-19T09:30:12.282Z,100824.38
2023-05-19T09:31:16.076Z,100830.50
2023-05-19T09:32:26.162Z,100828.63
2023-05-19T09:33:30.495Z,100831.78
2023-05-19T09:34:34.092Z,100821.34
2023-05-19T09:35:37.717Z,100819.38
2023-05-19T09:36:43.263Z,100818.50
2023-05-19T09:37:46.899Z,100817.63
2023-05-19T09:38:50.022Z,100821.91
2023-05-19T09:39:53.762Z,100816.94
2023-05-19T09:40:58.225Z,100815.69
2023-05-19T09:42:01.862Z,100814.19
2023-05-19T09:43:06.856Z,100819.59
2023-05-19T09:44:22.323Z,100818.16
2023-05-19T09:45:27.841Z,100809.88
2023-05-19T09:46:31.784Z,100822.06
2023-05-19T09:47:41.303Z,100820.41
2023-05-19T09:48:44.717Z,100808.25
2023-05-19T09:49:48.791Z,100811.97
2023-05-19T09:50:53.751Z,100812.13
2023-05-19T09:52:00.861Z,100816.03
2023-05-19T09:53:04.588Z,100811.41
2023-05-19T09:54:11.357Z,100814.75
2023-05-19T09:55:16.079Z,100812.69
2023-05-19T09:56:24.560Z,100804.25
2023-05-19T09:57:29.294Z,100797.75
2023-05-19T09:58:38.009Z,100803.88
2023-05-19T09:59:41.293Z,100804.72
2023-05-19T10:00:44.442Z,100790.84
2023-05-19T10:01:47.774Z,100783.81
2023-05-19T10:02:51.736Z,100796.06
2023-05-19T10:03:54.883Z,100800.03
2023-05-19T10:04:58.546Z,100800.31
2023-05-19T10:06:02.237Z,100796.91
2023-05-19T10:07:06.557Z,100793.41
2023-05-19T10:08:11.073Z,100797.66
2023-05-19T10:09:14.314Z,100793.25
2023-05-19T10:10:17.771Z,100786.25
2023-05-19T10:11:22.561Z,100789.97
2023-05-19T10:12:26.894Z,100795.81
2023-05-19T10:13:30.831Z,100792.31
2023-05-19T10:14:34.704Z,100791.22
2023-05-19T10:15:50.031Z,100790.97
2023-05-19T10:17:01.319Z,100792.09
2023-05-19T10:18:05.225Z,100796.38
2023-05-19T10:19:09.494Z,100799.03
2023-05-19T10:20:15.032Z,100801.72
2023-05-19T10:21:18.656Z,100791.94
2023-05-19T10:22:22.264Z,100795.66
2023-05-19T10:23:25.488Z,100795.13
2023-05-19T10:24:28.773Z,100795.53
2023-05-19T10:25:35.445Z,100800.94
2023-05-19T10:26:40.026Z,100791.84
2023-05-19T10:27:45.499Z,100791.72
2023-05-19T10:28:49.373Z,100792.81
2023-05-19T10:29:52.644Z,100791.69
2023-05-19T10:30:57.713Z,100788.03
2023-05-19T10:32:07.877Z,100791.72
2023-05-19T10:33:13.848Z,100798.28
2023-05-19T10:34:19.976Z,100792.19
2023-05-19T10:35:50.240Z,100790.94
2023-05-19T10:37:00.636Z,100786.47
2023-05-19T10:38:25.860Z,100794.13
2023-05-19T10:39:38.259Z,100792.81
2023-05-19T10:40:59.986Z,100782.25
2023-05-19T10:42:17.734Z,100784.81
2023-05-19T10:43:46.399Z,100788.53
2023-05-19T10:45:11.773Z,100782.63
2023-05-19T10:46:15.221Z,100779.88
2023-05-19T10:47:27.805Z,100778.16
2023-05-19T10:48:34.248Z,100770.13
2023-05-19T10:49:37.529Z,100779.06
2023-05-19T10:50:40.639Z,100775.28
2023-05-19T10:51:44.535Z,100785.16
2023-05-19T10:52:57.155Z,100780.59
2023-05-19T10:54:04.055Z,100780.53
2023-05-19T10:55:16.649Z,100781.47
2023-05-19T10:56:36.879Z,100786.78
2023-05-19T10:57:39.868Z,100789.25
2023-05-19T10:58:46.077Z,100788.97
2023-05-19T10:59:50.461Z,100782.03
2023-05-19T11:01:01.401Z,100779.31
2023-05-19T11:02:08.222Z,100771.44
2023-05-19T11:03:15.590Z,100770.63
2023-05-19T11:04:20.061Z,100765.13
2023-05-19T11:05:29.697Z,100758.69
2023-05-19T11:06:36.631Z,100767.91
2023-05-19T11:07:43.315Z,100764.38
2023-05-19T11:08:48.394Z,100773.78
2023-05-19T11:09:52.620Z,100770.19
2023-05-19T11:10:56.220Z,100771.56
2023-05-19T11:12:04.398Z,100779.91
2023-05-19T11:13:07.791Z,100768.09
2023-05-19T11:14:11.712Z,100780.78
2023-05-19T11:15:15.318Z,100775.81
2023-05-19T11:16:27.748Z,100775.94
2023-05-19T11:17:32.238Z,100761.06
2023-05-19T11:18:38.635Z,100772.16
2023-05-19T11:19:43.317Z,100756.00
2023-05-19T11:20:46.656Z,100758.69
2023-05-19T11:21:55.899Z,100763.13
2023-05-19T11:23:20.689Z,100756.38
2023-05-19T11:24:40.464Z,100763.16
2023-05-19T11:25:55.468Z,100763.06
2023-05-19T11:26:59.059Z,100763.44
2023-05-19T11:28:02.909Z,100763.22
2023-05-19T11:29:06.644Z,100767.00
2023-05-19T11:30:18.934Z,100763.88
2023-05-19T11:31:23.528Z,100762.34
2023-05-19T11:32:32.720Z,100751.56
2023-05-19T11:33:36.345Z,100762.06
2023-05-19T11:34:39.310Z,100759.06
2023-05-19T11:35:43.667Z,100761.78
2023-05-19T11:36:47.449Z,100754.25
2023-05-19T11:37:53.605Z,100760.16
2023-05-19T11:38:58.012Z,100754.63
2023-05-19T11:40:08.869Z,100752.91
2023-05-19T11:41:11.830Z,100754.59
2023-05-19T11:42:15.671Z,100741.75
2023-05-19T11:43:18.755Z,100753.22
2023-05-19T11:44:21.925Z,100754.03
2023-05-19T11:45:28.369Z,100748.44
2023-05-19T11:46:33.070Z,100752.88
2023-05-19T11:47:50.913Z,100751.44
2023-05-19T11:48:59.846Z,100744.81
2023-05-19T11:50:03.024Z,100742.94
2023-05-19T11:51:07.368Z,100734.19
2023-05-19T11:52:10.716Z,100731.84
2023-05-19T11:53:14.496Z,100734.84
2023-05-19T11:54:18.403Z,100733.34
2023-05-19T11:55:26.168Z,100738.22
2023-05-19T11:56:34.207Z,100742.50
2023-05-19T11:57:37.264Z,100735.84
2023-05-19T11:58:40.642Z,100744.84
2023-05-19T11:59:48.609Z,100746.69
2023-05-19T12:00:52.506Z,100742.41
2023-05-19T12:01:55.864Z,100737.75
2023-05-19T12:02:59.190Z,100746.97
2023-05-19T12:04:02.807Z,100740.53
2023-05-19T12:05:07.193Z,100739.59
2023-05-19T12:06:11.508Z,100736.28
2023-05-19T12:07:18.187Z,100737.81
2023-05-19T12:08:22.429Z,100739.44
2023-05-19T12:09:25.699Z,100746.03
2023-05-19T12:10:30.799Z,100740.06
2023-05-19T12:11:34.266Z,100745.53
2023-05-19T12:12:37.719Z,100748.34
2023-05-19T12:13:41.523Z,100754.97
2023-05-19T12:14:45.602Z,100746.47
2023-05-19T12:15:48.655Z,100745.09
2023-05-19T12:16:51.876Z,100743.94
2023-05-19T12:17:59.953Z,100751.94
2023-05-19T12:19:06.055Z,100745.00
2023-05-19T12:20:09.974Z,100755.19
2023-05-19T12:21:13.385Z,100753.44
2023-05-19T12:22:18.089Z,100740.19
2023-05-19T12:23:21.792Z,100739.91
2023-05-19T12:24:25.106Z,100744.50
2023-05-19T12:25:29.801Z,100749.47
2023-05-19T12:26:33.365Z,100750.31
2023-05-19T12:27:37.923Z,100746.38
2023-05-19T12:28:42.415Z,100734.53
2023-05-19T12:29:53.845Z,100743.53
2023-05-19T12:30:59.322Z,100750.63